NCAR-RAP Real-Time Weather Data

Output produced by METARs form (26 May 2022  07:28 UTC)
found at http://weather.rap.ucar.edu/surface/
 
KJAN 260722Z 15013KT 10SM VCTS FEW008 BKN034 BKN050 21/19 A2990 RMK AO2 LTG DSNT N AND NW T02060194
KJAN 260703Z 16012KT 10SM FEW008 BKN041 21/19 A2990 RMK AO2 LTG DSNT W-N T02060194
KJAN 260654Z 16012KT 10SM SCT041 BKN050 21/19 A2990 RMK AO2 LTG DSNT N AND NW SLP122 T02060194
KJAN 260554Z 15011KT 10SM SCT006 BKN070 21/19 A2991 RMK AO2 SLP125 T02060194 10233 20206 402500200 50007
KJAN 260542Z 15009KT 10SM SCT006 BKN070 21/19 A2991 RMK AO2 T02060194
KJAN 260454Z 14012KT 10SM CLR 21/19 A2991 RMK AO2 SLP124 T02060194
KJAN 260354Z 16007KT 10SM CLR 21/19 A2990 RMK AO2 SLP121 T02060194
KJAN 260254Z 15008KT 10SM CLR 21/19 A2989 RMK AO2 SLP116 T02110194 53015
KJAN 260154Z 15007KT 10SM SCT250 21/19 A2986 RMK AO2 SLP107 T02110194
KJAN 260054Z 14006KT 10SM FEW095 BKN250 22/20 A2985 RMK AO2 SLP105 T02220200
KJAN 252354Z 18008KT 10SM FEW020 SCT095 BKN250 23/20 A2984 RMK AO2 SLP101 60000 T02330200 10250 20200 58012
KJAN 252254Z 19008KT 10SM SCT020 BKN095 23/20 A2985 RMK AO2 SLP104 T02330200
KJAN 252201Z 17011KT 10SM SCT019 BKN095 24/21 A2987 RMK AO2 T02390206
KJAN 252154Z 18011G20KT 10SM SCT019 BKN026 24/21 A2988 RMK AO2 SLP113 T02390206
KJAN 252107Z 15013KT 10SM SCT019 BKN026 24/21 A2987 RMK AO2 T02440211
KJAN 252054Z 16016G24KT 10SM SCT018 BKN100 24/21 A2987 RMK AO2 SLP112 60000 T02440211 51001
KJAN 251954Z 15015G22KT 10SM FEW050 SCT090 SCT110 24/21 A2987 RMK AO2 SLP109 T02440206
KJAN 251854Z 10SM BKN110 23/21 A2988 RMK AO2 RAE02 SLP114 P0000 T02280206 $
KJAN 251754Z 11010KT 7SM -RA BKN110 OVC150 20/19 A2987 RMK AO2 LTG DSNT N-SE TSE09 SLP112 TS MOV NE P0013 60064 T02000194 10244 20200 58001 $
KJAN 251710Z COR 00000KT 3SM VCTS RA BR BKN017 BKN028CB OVC110 21/21 A2990 RMK AO2 LTG DSNT ALQDS TSE09 OCNL LTGICCCCG VC E TS VC E MOV NE P0005 T02110211 $
KJAN 251701Z 25006KT 2SM TSRA BR BKN017 BKN028CB OVC110 21/21 A2992 RMK AO2 LTG DSNT ALQDS OCNL LTGICCCCG ALQDS TS ALQDS MOV NE P0003 T02110211 $
KJAN 251654Z 22005G42KT 1/2SM R16L/1600VP6000FT +TSRA FG FEW014 BKN028CB OVC100 21/21 A2992 RMK AO2 PK WND 23042/1645 LTG DSNT ALQDS TSB38 SLP128 OCNL LTGICCCCG ALQDS TS ALQDS MOV NE P0040 T02110206 $
KJAN 251647Z 25015G42KT 210V280 3/4SM R16L/1600VP6000FT +TSRA BR FEW014 BKN028CB OVC100 22/21 A2992
KJAN 251644Z 23024G35KT 2SM R16L/6000VP6000FT -TSRA BR FEW014 BKN028CB OVC100 23/22 A2995 RMK AO2 PK WND 24035/1644 SFC VIS 3 LTG DSNT ALQDS TSB38 PRESRR OCNL LTGICCCCG SW TS SW MOV NE P0005 T02280217 $
KJAN 251629Z 13008KT 2SM VCTS -RA FEW014 BKN028CB OVC100 23/22 A2988 RMK AO2 SFC VIS 9 LTG DSNT S-NW OCNL LTGICCCCG VC SW TS VC SW MOV NE P0004 T02280217 $
KJAN 251616Z 12008KT 2SM -RA SCT015 BKN039 OVC100 23/22 A2989 RMK AO2 SFC VIS 9 LTG DSNT SW AND W CB DSNT SW P0003 T02280217 $
KJAN 251601Z 14013KT 2SM RA BR BKN015 BKN050 23/22 A2990 RMK AO2 SFC VIS 3 LTG DSNT SW CB DSNT SW P0002 T02330217 $
KJAN 251554Z 15011KT 2SM RA BR BKN014 BKN065 OVC110 23/22 A2990 RMK AO2 SFC VIS 5 LTG DSNT SW RAB45 SLP121 CB DSNT SW P0000 T02330217 $
KJAN 251508Z 15015G21KT 10SM BKN014 BKN065 OVC110 24/21 A2988 RMK AO2 LTG DSNT S CB DSNT S T02390206 $
KJAN 251454Z COR 13014G20KT 10SM FEW030 SCT065 23/20 A2987 RMK AO2 LTG DSNT S AND SW RAE05 SLP112 CB DSNT SW P0000 60011 T02330200 56007 $
KJAN 251354Z 14008KT 8SM -RA FEW090 SCT120 OVC200 21/19 A2988 RMK AO2 LTG DSNT NE-SE RAE28B45 SLP114 TS MOV NE P0005 T02060194 $
KJAN 251318Z 13011KT 10SM VCTS -RA FEW030CB SCT050 BKN085 21/19 A2988 RMK AO2 LTG DSNT SE AND S OCNL LTGICCCCG VC S TS VC S MOV NE P0004 T02060194 $
KJAN 251254Z 14013KT 5SM -RA BR SCT048 BKN065 OVC110 21/20 A2988 RMK AO2 LTG DSNT SE AND S SLP114 P0006 T02110200 $
KJAN 251154Z 14011KT 8SM -RA BKN070 BKN090 OVC110 21/19 A2989 RMK AO2 LTG DSNT SE AND S SLP119 TS MOV NE P0004 60141 70157 T02060194 10217 20200 55001 $
KJAN 251128Z 12011G21KT 10SM -RA BKN110 21/19 A2988 RMK AO2 LTG DSNT S TS MOV NE P0003 T02060194 $
KJAN 251054Z 13013G21KT 8SM VCTS -RA FEW030CB SCT090 OVC110 21/19 A2988 RMK AO2 LTG DSNT S RAB0957 SLP114 OCNL LTGICCCCG VC S TS VC S MOV NE P0016 T02060194 $
KJAN 251049Z AUTO 12015KT 6SM VCTS RA BR BKN100 OVC120 21/19 A2988 RMK AO2 LTG DSNT S RAB0957 P0016 $
KJAN 251041Z AUTO 13013KT 3SM RA BR FEW075 BKN095 OVC120 21/19 A2988 RMK AO2 RAB0957 P0013 T02060194 $
KJAN 251018Z AUTO 14012G18KT 6SM VCTS RA BR FEW050 BKN085 OVC110 21/20 A2989 RMK AO2 LTG DSNT N AND S RAB0957 P0008 T02060200 $
KJAN 250954Z AUTO 15012KT 10SM FEW014 SCT065 BKN080 21/20 A2990 RMK AO2 LTG DSNT SW-N RAB28E53 SLP120 P0001 T02110200 $
KJAN 250933Z AUTO 14013KT 10SM -RA FEW014 BKN070 OVC090 22/20 A2988 RMK AO2 LTG DSNT NW RAB28 P0000 T02170200 $
KJAN 250916Z AUTO 13014G22KT 10SM VCTS BKN100 22/20 A2987 RMK AO2 LTG DSNT SW-NW T02170200 $
KJAN 250854Z AUTO 13013G18KT 10SM FEW110 22/20 A2987 RMK AO2 LTG DSNT SW-NW SLP110 60120 T02170200 56018 $
KJAN 250754Z AUTO 12006KT 10SM FEW080 21/20 A2987 RMK AO2 LTG DSNT NW RAE17 TSE02 SLP111 P0001 T02060200 $
KJAN 250708Z AUTO 12006KT 10SM -RA SCT041 BKN095 BKN110 21/19 A2990 RMK AO2 LTG DSNT N TSE02 P0001 T02060194 $
KJAN 250654Z AUTO 16008KT 5SM -TSRA BR BKN035 BKN095 OVC110 21/19 A2988 RMK AO2 LTG DSNT N TSB15E30B38 SLP114 P0119 T02060189 $
KJAN 250639Z AUTO 13012G19KT 1 1/2SM R16L/5000VP6000FT +TSRA BR BKN031 BKN050 OVC080 20/19 A2990 RMK AO2 LTG DSNT NE TSB15E30B38 P0105 T02000194 $
KJAN 250630Z AUTO 20007KT 1SM R16L/4000VP6000FT VCTS +RA BR FEW009 OVC022 21/19 A2993 RMK AO2 LTG DSNT SW TSB15E30 P0079 T02060194 $
KJAN 250617Z AUTO 17007KT 1SM R16L/5000VP6000FT +TSRA BR BKN022 OVC047 20/19 A2992 RMK AO2 LTG DSNT S AND SW TSB15 P0055 T02000194 $
KJAN 250613Z AUTO 18008KT 3/4SM R16L/4000VP6000FT VCTS +RA BR BKN020 OVC046 20/19 A2993 RMK AO2 LTG DSNT N AND S AND SW P0046 T02000194 $
KJAN 250605Z AUTO 18010G18KT 1SM R16L/5000VP6000FT VCTS +RA BR FEW009 BKN020 OVC049 21/19 A2994 RMK AO2 LTG DSNT N AND S AND SW P0017 T02060194 $
KJAN 250602Z AUTO 17009G18KT 1SM R16L/P6000FT VCTS +RA BR FEW014 BKN042 OVC049 21/19 A2994 RMK AO2 LTG DSNT N AND S AND SW P0015 T02060194 $
KJAN 250556Z AUTO 23008KT 3/4SM R16L/5000VP6000FT +RA BR FEW011 BKN036 OVC045 21/19 A2993 RMK AO2 LTG DSNT SW-N P0005 T02060194 $
KJAN 250554Z AUTO 23007KT 200V290 1SM R16L/5000VP6000FT +RA BR FEW011 BKN024 OVC042 21/20 A2992 RMK AO2 LTG DSNT SW-N RAB28 SLP128 P0013 60014 T02110200 10256 20206 403000206 53003 $
KJAN 250551Z AUTO 22005KT 1 1/2SM R16L/5000VP6000FT +RA BR FEW016 BKN024 OVC044 21/20 A2993 RMK AO2 LTG DSNT SW-N RAB28 P0008 $
KJAN 250543Z AUTO 19007KT 2 1/2SM +RA BR FEW009 SCT015 OVC040 21/20 A2994 RMK AO2 LTG DSNT SW AND W RAB28 P0006 T02110200 $
KJAN 250538Z AUTO 24006G20KT 2 1/2SM +RA BR BKN013 BKN036 OVC044 21/20 A2993 RMK AO2 LTG DSNT W RAB28 P0003 T02110200 $
KJAN 250527Z AUTO 22011KT 9SM SCT009 OVC015 22/20 A2994 RMK AO2 LTG DSNT SW PRESRR T02220200 $
KJAN 250509Z AUTO 24007KT 10SM BKN009 OVC016 22/21 A2992 RMK AO2 T02220206 $
KJAN 250454Z AUTO 16008KT 10SM SCT009 BKN018 OVC055 22/21 A2991 RMK AO2 SLP123 T02220206 $
KJAN 250446Z AUTO 26007G18KT 10SM SCT009 SCT021 BKN055 22/20 A2992 RMK AO2 T02170200 $
KJAN 250354Z 13007KT 10SM CLR 21/19 A2992 RMK AO2 SLP126 T02110194 $
KJAN 250254Z 17004KT 10SM SCT120 21/19 A2991 RMK AO2 SLP125 60001 T02060194 51014 $
KJAN 250154Z 13006KT 10SM BKN100 22/20 A2991 RMK AO2 LTG DSNT E RAB23E46 SLP124 P0000 T02170200 $
KJAN 250054Z 14009KT 10SM FEW035 BKN120 23/20 A2989 RMK AO2 LTG DSNT NE-SE RAB2355E34 SLP117 P0001 T02280200 $
KJAN 242354Z 13006KT 10SM BKN120 26/22 A2987 RMK AO2 LTG DSNT SE AND S SLP111 60002 T02560217 10300 20217 58002 $
KJAN 242254Z 14007KT 10SM FEW033 BKN120 26/21 A2987 RMK AO2 LTG DSNT NE SLP112 T02560211 $
KJAN 242154Z 00000KT 10SM FEW065 BKN120 23/21 A2988 RMK AO2 LTG DSNT S RAE27 TSE2059B01E08 SLP115 TS MOV N P0000 T02280206 $
KJAN 242111Z 21006KT 10SM -RA FEW065 OVC110 22/19 A2988 RMK AO2 LTG DSNT E AND SE AND NW TSE2059B01E08 TS MOV N P0000 T02170194 $
KJAN 242054Z 24010G20KT 10SM -TSRA FEW024CB SCT043 BKN050 23/19 A2988 RMK AO2 PK WND 21030/2044 WSHFT 2033 LTG DSNT ALQDS RAB50 TSB44 SLP114 OCNL LTGICCC W TS W MOV N P0000 60002 T02280189 53003 $
KJAN 242047Z 23014G30KT 10SM TS FEW024CB SCT043 BKN050 25/21 A2988 RMK AO2 PK WND 21030/2044 WSHFT 2033 LTG DSNT ALQDS TSB44 OCNL LTGICCC W TS W MOV N T02500206 $
KJAN 242034Z 16015G21KT 10SM VCTS FEW030 SCT042 SCT050 27/21 A2986 RMK AO2 LTG DSNT SW-N T02670211 $
KJAN 241954Z 17012KT 10SM FEW090 BKN120 29/23 A2986 RMK AO2 PK WND 21031/1900 LTG DSNT ALQDS RAB1858E19 SLP106 P0002 T02890228 $
KJAN 241949Z 16013KT 10SM FEW090 BKN120 29/23 A2986 RMK AO2 PK WND 21031/1900 LTG DSNT ALQDS RAB1858E19 P0002 $
KJAN 241930Z 16010KT 10SM VCTS FEW090 SCT110 27/23 A2987 RMK AO2 PK WND 21031/1900 LTG DSNT E AND SW RAB1858E19 P0002 T02720233 $
KJAN 241854Z 18013G20KT 10SM FEW039 SCT049 30/21 A2987 RMK AO2 SLP110 T03000211 $
KJAN 241754Z 17014G20KT 10SM FEW050 FEW070 SCT085 29/22 A2990 RMK AO2 RAB1657E07 SLP120 P0000 60000 T02940217 10294 20222 58020 $
KJAN 241654Z 18013G26KT 10SM FEW031 SCT040 BKN070 28/21 A2993 RMK AO2 PK WND 20027/1616 SLP131 T02830206 $
KJAN 241617Z 18016G27KT 10SM SCT026 SCT034 BKN055 27/21 A2994 RMK AO2 PK WND 20027/1616 T02720206 $
KJAN 241554Z 16014KT 10SM FEW023 BKN028 BKN110 27/21 A2995 RMK AO2 SLP136 T02670206 $
KJAN 241515Z 17009KT 10SM SCT020 SCT027 BKN048 26/21 A2995 RMK AO2 T02560211 $
KJAN 241454Z 17008KT 10SM BKN017 BKN120 25/21 A2996 RMK AO2 SLP141 T02500206 53006 $
KJAN 241441Z 16011KT 10SM BKN017 BKN120 25/21 A2995 RMK AO2 T02500211 $
KJAN 241420Z 15012KT 10SM SCT014 BKN120 24/21 A2995 RMK AO2 T02440211 $
KJAN 241354Z 15011KT 10SM BKN014 BKN120 24/21 A2995 RMK AO2 SLP137 T02390211 $
KJAN 241336Z 14007KT 10SM BKN014 BKN120 23/21 A2994 RMK AO2 T02330206 $
KJAN 241254Z 12006KT 10SM FEW009 BKN120 23/21 A2994 RMK AO2 SLP136 T02280206
KJAN 241154Z 14008KT 10SM SCT009 BKN120 22/21 A2994 RMK AO2 SLP134 T02220206 10222 20217 53006
KJAN 241125Z 15010KT 10SM BKN009 22/21 A2994 RMK AO2 T02220206
KJAN 241111Z 14008KT 10SM BKN010 22/21 A2994 RMK AO2 T02170206
KJAN 241054Z 15006KT 10SM FEW010 22/21 A2994 RMK AO2 SLP133 T02170206
KJAN 240954Z AUTO 13009KT 10SM FEW120 22/21 A2992 RMK AO2 SLP128 T02170206
KJAN 240950Z AUTO 13009KT 10SM FEW009 SCT120 22/21 A2992 RMK AO2
KJAN 240854Z AUTO 14004KT 10SM BKN110 22/21 A2995 RMK AO2 SLP136 T02170206 55004
KJAN 240754Z AUTO 11006KT 10SM CLR 22/21 A2994 RMK AO2 SLP136 T02170211